Skip Navigation Links
NOAA logo - Click to go to the NOAA homepage
NOAA's National Weather Service
Alaska Aviation Weather Unit
  NWS logo - Click to go to the NWS homepage
Left Navbar Graphic     12 AKDT = 20 GMT

   
NOAA is celebrating 200 years of science, service, and stewardship. Visit the NOAA 200th celebration Web site to learn more.
USA.gov is the U.S. Government's official Web portal to all Federal, state and local government Web resources and services.
Facebook
NWS on Facebook

Important Change Regarding the AAWU Web Presence

 

Over the last several months, the AAWU has been working to navigate its webpages to a nationally supported server. Security, as well as other needs, have necessitated the change.  We have been given an extension for the site changeover while we diligently work at addressing feedback received. As of July 14, 2017, aawu.arh.noaa.gov will be discontinued. The new AAWU web address is weather.gov/aawu. It is now live and will run in-parallel with the old site until it is discontinued on July 14, 2017. Please continue to send any feedback or questions regarding the new webpages to nws.ar.aawu.webauthors@noaa.gov.  Thank you for your patience during this time of transition.
AAWU Home :: Display TAF Add Bookmark
TAF PABE 251802Z 2518/2618 24006KT 3SM BR OVC006
      TEMPO 2518/2522 1 1/2SM BR
     FM252200 23008KT 6SM BR VCSH SCT007 OVC012
     FM260400 26010KT 6SM BR FEW007 OVC012
     FM260900 27014KT 2SM BR OVC006=
PABE 251434Z AUTO 17007KT 2SM -RA BR SCT003 OVC006 11/11 A2994=

METAR PABE 251453Z 17008KT 1 1/2SM -RA BR OVC006 11/11 A2994 RMK AO2
     RAE1359B18 SLP139 P0004 60004 T01060106 56002=

PABE 251533Z 17008KT 1 1/4SM -RA BR OVC004 11/11 A2994=

SPECI PABE 251533Z 17008KT 1 1/4SM -RA BR OVC004 11/11 A2994 RMK AO2
 P0001 T01110111=

METAR PABE 251553Z 18007KT 1 1/2SM BR OVC004 11/11 A2993 RMK AO2 RAE42
     SLP138 P0001 T01110111=

METAR PABE 251653Z 22004KT 1/2SM R19R/5000VP6000FT FG OVC004 11/11 A2993
     RMK AO2 RAB23E44 SLP137 P0002 T01110111=

PABE 251736Z 23006KT 2SM BR OVC006 11/11 A2993=

PABE 251736Z 23006KT 2SM BR OVC006 11/11 A2993 RMK AO2 RAB1654E17
     P0001 T01110111=

PABE 251745Z 24006KT 4SM BR OVC006 11/11 A2993=

SPECI PABE 251745Z 24006KT 4SM BR OVC006 11/11 A2993 RMK AO2
 RAB1654E17 P0001 T01110111=

METAR PABE 251753Z 24006KT 2 1/2SM BR OVC006 12/12 A2993 RMK AO2
     RAB1654E17 SLP136 P0001 60008 T01170117 10117 20106 56003=

PABE 251800Z 23006KT 2SM BR OVC004 12/12 A2993 RMK AO2
     T01170117=

METAR PABE 251853Z 22006KT 7SM BKN007 BKN014 OVC025 12/12 A2993 RMK AO2
     SLP137 T01220122=

METAR PABE 251953Z 18005KT 10SM SCT014 OVC021 14/12 A2992 RMK AO2 SLP134
     T01390122=

PABE 251959Z 23007KT 5SM -RA BR FEW009 BKN014 OVC021 14/12 A2992=

SPECI PABE 251959Z 23007KT 5SM -RA BR FEW009 BKN014 OVC021 14/12
 A2992 RMK AO2 RAB59 P0000 T01390122=


NOAA's National Weather Service
Alaska Aviation Weather Unit
6930 Sand Lake Road
Anchorage, AK 99502-1845
Disclaimer
Credits
Glossary
Privacy Policy
About Us
Career Opportunities
Contact AAWU Internet Services Site last modified: April, 17th 2012